Time;durP1;ratioP1;P1;durP2;ratioP2;P2;SDS_P1;SDS_P2;PMS_P1;PMS_P2;Temp;Humidity;BMP_temperature;BMP_pressure;BME280_temperature;BME280_humidity;BME280_pressure;Samples;Min_cycle;Max_cycle;Signal;HPM_P1;HPM_P2
2023/04/28 07:32:53;;;;;;;18.23;14.35;;;;;;;-145.79;96.10;77495.97;5343541;27;20350;-73
2023/04/28 07:35:25;;;;;;;17.88;15.57;;;;;;;-145.79;96.04;77498.09;5341415;27;20032;-72
2023/04/28 07:37:56;;;;;;;13.90;12.50;;;;;;;-145.79;96.07;77485.38;5342214;27;20106;-72
2023/04/28 07:40:28;;;;;;;13.98;12.52;;;;;;;-145.79;95.98;77483.25;5343091;27;20448;-71
2023/04/28 07:42:59;;;;;;;13.98;12.50;;;;;;;-145.79;96.15;77481.13;5342976;28;20073;-71
2023/04/28 07:45:31;;;;;;;14.25;12.85;;;;;;;-145.79;95.94;77483.25;5343618;27;20530;-72
2023/04/28 07:48:02;;;;;;;13.82;12.52;;;;;;;-145.79;95.67;77483.25;5343234;27;20024;-72
2023/04/28 07:50:34;;;;;;;14.70;12.73;;;;;;;-145.79;96.17;77474.78;5341148;27;20494;-71
2023/04/28 07:53:05;;;;;;;15.27;13.43;;;;;;;-145.79;96.34;77476.91;5335488;28;20506;-72
2023/04/28 07:55:37;;;;;;;15.68;14.18;;;;;;;-145.79;96.39;77470.53;5321460;28;20106;-72
2023/04/28 07:58:09;;;;;;;14.90;13.40;;;;;;;-145.79;96.92;77459.94;5320682;28;20034;-70
2023/04/28 08:00:40;;;;;;;16.35;14.15;;;;;;;-145.79;96.95;77466.31;5321394;28;20463;-72
2023/04/28 08:03:12;;;;;;;16.77;15.07;;;;;;;-145.79;97.12;77466.31;5321386;28;20375;-72
2023/04/28 08:05:44;;;;;;;17.50;14.50;;;;;;;-145.79;97.43;77459.94;5321901;28;20027;-70
2023/04/28 08:08:15;;;;;;;16.30;14.77;;;;;;;-145.79;98.02;77449.34;5321387;28;20024;-72
2023/04/28 08:10:47;;;;;;;16.45;14.90;;;;;;;-145.79;98.19;77445.09;5324066;28;20476;-71
2023/04/28 08:13:18;;;;;;;16.63;15.02;;;;;;;-145.79;98.27;77447.22;5320433;28;20039;-72
2023/04/28 08:15:49;;;;;;;16.75;15.10;;;;;;;-145.79;98.04;77445.09;5321447;28;20027;-73
2023/04/28 08:18:21;;;;;;;17.65;15.85;;;;;;;-145.79;97.97;77440.88;5330150;28;20135;-72
2023/04/28 08:20:53;;;;;;;18.58;16.73;;;;;;;-145.79;98.49;77442.97;5341235;27;20030;-71
2023/04/28 08:23:27;;;;;;;19.50;17.63;;;;;;;-145.79;99.04;77440.88;5342573;28;20016;-72
2023/04/28 08:26:01;;;;;;;18.17;16.58;;;;;;;-145.79;98.55;77438.75;5341792;27;20019;-73
2023/04/28 08:28:32;;;;;;;18.17;16.50;;;;;;;-145.79;99.02;77445.09;5322697;28;20016;-72
2023/04/28 08:31:05;;;;;;;18.23;16.58;;;;;;;-145.79;98.92;77445.09;5330584;28;20066;-72
2023/04/28 08:33:36;;;;;;;19.13;17.38;;;;;;;-145.79;99.55;77445.09;5315336;27;20883;-72
2023/04/28 08:36:07;;;;;;;19.17;17.40;;;;;;;-145.79;99.43;77436.63;5327944;28;20035;-71
2023/04/28 08:38:38;;;;;;;20.30;18.40;;;;;;;-145.79;99.67;77432.38;5316911;28;20028;-71
2023/04/28 08:41:14;;;;;;;20.50;18.40;;;;;;;-145.79;99.88;77426.03;5305372;28;20499;-71
2023/04/28 08:43:45;;;;;;;20.58;18.42;;;;;;;-145.79;99.96;77417.53;5309827;28;20344;-71
2023/04/28 08:46:17;;;;;;;20.10;18.05;;;;;;;-145.79;99.88;77419.66;5327374;28;20035;-71
2023/04/28 08:48:49;;;;;;;21.83;19.63;;;;;;;-145.79;99.89;77411.19;5326670;28;20101;-71
2023/04/28 08:51:36;;;;;;;21.60;19.35;;;;;;;-145.79;100.00;77411.19;5312827;28;20369;-72
2023/04/28 08:54:07;;;;;;;20.08;18.08;;;;;;;-145.79;100.00;77411.19;5306635;28;20055;-71
2023/04/28 08:56:43;;;;;;;21.42;19.05;;;;;;;-145.79;100.00;77411.19;5305475;28;20032;-71
2023/04/28 08:59:17;;;;;;;21.63;19.50;;;;;;;-145.79;100.00;77411.19;5306493;28;20069;-72
2023/04/28 09:01:49;;;;;;;20.95;18.95;;;;;;;-145.79;100.00;77415.44;5305799;28;20107;-72
2023/04/28 09:04:20;;;;;;;20.67;18.67;;;;;;;-145.79;100.00;77404.84;5306467;28;20081;-72
2023/04/28 09:06:51;;;;;;;20.20;18.20;;;;;;;-145.79;100.00;77394.22;5306251;28;20020;-72
2023/04/28 09:09:29;;;;;;;19.90;18.00;;;;;;;-145.79;100.00;77396.34;5305303;28;20035;-72
2023/04/28 09:12:02;;;;;;;21.23;19.00;;;;;;;-145.79;100.00;77394.22;5306029;28;20027;-72
2023/04/28 09:14:36;;;;;;;19.63;17.70;;;;;;;-145.79;100.00;77385.75;5305829;28;20020;-72
2023/04/28 09:17:12;;;;;;;19.95;17.95;;;;;;;-145.79;100.00;77373.03;5305253;28;20020;-73
2023/04/28 09:19:43;;;;;;;19.90;17.98;;;;;;;-145.79;100.00;77377.28;5306444;28;20024;-70
2023/04/28 09:22:15;;;;;;;20.13;18.23;;;;;;;-145.79;100.00;77379.41;5325082;28;20027;-69
2023/04/28 09:24:46;;;;;;;19.77;17.75;;;;;;;-145.79;100.00;77368.78;5325987;28;20060;-70
2023/04/28 09:27:26;;;;;;;21.73;19.65;;;;;;;-145.79;100.00;77370.91;5326573;28;20329;-71
2023/04/28 09:29:57;;;;;;;21.13;19.02;;;;;;;-145.79;100.00;77356.06;5321326;28;20340;-71
2023/04/28 09:32:29;;;;;;;20.70;18.70;;;;;;;-145.79;100.00;77353.97;5321391;28;20047;-71
2023/04/28 09:35:03;;;;;;;22.38;20.00;;;;;;;-145.79;100.00;77360.31;5316764;28;20111;-71
2023/04/28 09:37:36;;;;;;;22.92;20.02;;;;;;;-145.79;100.00;77362.44;5311846;28;20035;-70
2023/04/28 09:40:09;;;;;;;22.75;20.35;;;;;;;-145.79;100.00;77358.19;5308289;28;20043;-71
2023/04/28 09:42:42;;;;;;;22.63;20.27;;;;;;;-145.79;100.00;77362.44;5309799;28;20076;-71
2023/04/28 09:45:15;;;;;;;23.95;21.45;;;;;;;-145.79;100.00;77356.06;5302845;28;20156;-71
2023/04/28 09:47:47;;;;;;;23.40;21.13;;;;;;;-145.79;100.00;77358.19;5318507;27;20019;-71
2023/04/28 09:50:19;;;;;;;24.67;22.20;;;;;;;-145.79;100.00;77356.06;5330085;27;20027;-71
2023/04/28 09:52:56;;;;;;;25.60;22.70;;;;;;;-145.79;100.00;77353.97;5321543;27;20019;-71
2023/04/28 09:55:29;;;;;;;25.13;22.42;;;;;;;-145.79;100.00;77360.31;5310412;27;20413;-72
2023/04/28 09:58:04;;;;;;;32.45;26.30;;;;;;;-145.79;100.00;77364.56;5304189;28;20027;-72
2023/04/28 10:00:39;;;;;;;39.20;35.10;;;;;;;-145.79;100.00;77360.31;5304565;28;20115;-71
2023/04/28 10:03:13;;;;;;;40.70;35.53;;;;;;;-145.79;100.00;77360.31;5304096;28;20024;-71
2023/04/28 10:05:45;;;;;;;41.03;35.80;;;;;;;-145.79;100.00;77358.19;5306230;27;20020;-71
2023/04/28 10:08:18;;;;;;;40.63;35.85;;;;;;;-145.79;100.00;77356.06;5304472;28;20069;-71
2023/04/28 10:10:53;;;;;;;40.35;35.60;;;;;;;-145.79;100.00;77347.59;5305969;28;20514;-72
2023/04/28 10:13:24;;;;;;;38.35;34.22;;;;;;;-145.79;100.00;77343.38;5313654;28;20085;-71
2023/04/28 10:15:57;;;;;;;40.00;35.72;;;;;;;-145.79;100.00;77337.00;5304039;28;20012;-72
2023/04/28 10:18:29;;;;;;;38.50;33.72;;;;;;;-145.79;100.00;77334.88;5303954;28;20026;-74
2023/04/28 10:21:02;;;;;;;43.20;36.20;;;;;;;-145.79;100.00;77330.66;5309858;28;20032;-73
2023/04/28 10:23:58;;;;;;;37.70;33.63;;;;;;;-145.79;100.00;77317.94;5325943;28;20103;-71
2023/04/28 10:27:05;;;;;;;36.13;32.20;;;;;;;-145.79;100.00;77317.94;5315339;28;20113;-71
2023/04/28 10:29:36;;;;;;;;;;;;;;;-145.79;100.00;77313.69;5311257;28;20043;-71
2023/04/28 10:32:20;;;;;;;35.60;31.83;;;;;;;-145.79;100.00;77313.69;5317233;28;20295;-70
2023/04/28 10:34:53;;;;;;;33.25;29.85;;;;;;;-145.79;100.00;77311.56;5324320;28;20474;-69
2023/04/28 10:38:09;;;;;;;32.97;29.80;;;;;;;-145.79;100.00;77305.22;5308656;28;20050;-71
2023/04/28 10:40:45;;;;;;;33.75;30.30;;;;;;;-145.79;100.00;77300.97;5303462;28;20031;-71
2023/04/28 10:43:29;;;;;;;33.15;29.98;;;;;;;-145.79;100.00;77292.50;5311471;28;20055;-71
2023/04/28 10:46:02;;;;;;;32.85;29.55;;;;;;;-145.79;100.00;77279.78;5323752;28;20538;-71
2023/04/28 10:48:35;;;;;;;31.13;28.15;;;;;;;-145.79;100.00;77271.28;5322070;28;20031;-71
2023/04/28 10:51:08;;;;;;;30.88;27.75;;;;;;;-145.79;100.00;77271.28;5324629;28;20114;-72
2023/04/28 10:53:46;;;;;;;30.30;27.33;;;;;;;-145.79;100.00;77267.06;5325123;28;20076;-72
2023/04/28 10:56:25;;;;;;;30.10;27.38;;;;;;;-145.79;100.00;77258.56;5324164;28;20023;-72
2023/04/28 10:58:58;;;;;;;30.55;27.65;;;;;;;-145.79;100.00;77247.97;5325346;28;20038;-72
2023/04/28 11:01:33;;;;;;;27.05;24.58;;;;;;;-145.79;100.00;77237.38;5321901;28;20160;-72
2023/04/28 11:07:06;;;;;;;25.60;23.33;;;;;;;-145.79;100.00;77222.53;5324844;28;19911;-72
2023/04/28 11:09:38;;;;;;;25.25;22.92;;;;;;;-145.79;99.48;77209.81;5323809;28;20368;-72
2023/04/28 11:12:15;;;;;;;22.88;20.85;;;;;;;-145.79;98.74;77203.47;5324726;28;20039;-72
2023/04/28 11:14:47;;;;;;;24.67;22.48;;;;;;;-145.79;97.82;77203.47;5319271;28;20032;-72
2023/04/28 11:17:41;;;;;;;23.70;21.48;;;;;;;-145.79;97.74;77195.00;5310845;28;20527;-72
2023/04/28 11:20:13;;;;;;;22.55;20.58;;;;;;;-145.79;97.34;77184.41;5324254;28;20020;-72
2023/04/28 11:22:44;;;;;;;23.13;21.20;;;;;;;-145.79;97.74;77178.03;5319659;28;20091;-72
2023/04/28 11:25:16;;;;;;;23.60;21.55;;;;;;;-145.79;96.36;77184.41;5303457;28;20038;-70
2023/04/28 11:27:47;;;;;;;22.45;20.48;;;;;;;-145.79;96.12;77173.78;5303376;28;20107;-71
2023/04/28 11:30:21;;;;;;;22.85;20.83;;;;;;;-145.79;96.17;77171.69;5315640;28;20032;-71
2023/04/28 11:32:52;;;;;;;23.65;21.35;;;;;;;-145.79;95.42;77167.44;5315993;28;20097;-72
2023/04/28 11:35:23;;;;;;;22.60;20.50;;;;;;;-145.79;94.92;77175.91;5306406;28;20111;-71
2023/04/28 11:38:05;;;;;;;21.20;19.33;;;;;;;-145.79;94.50;77180.16;5303364;28;20428;-72
2023/04/28 11:40:36;;;;;;;20.52;18.52;;;;;;;-145.79;95.28;77167.44;5311408;28;20020;-71
2023/04/28 11:43:07;;;;;;;22.92;20.73;;;;;;;-145.79;96.10;77169.56;5309368;28;20070;-70
2023/04/28 11:45:45;;;;;;;23.42;21.42;;;;;;;-145.79;96.96;77184.41;5319170;28;20024;-70
2023/04/28 11:48:21;;;;;;;23.38;21.27;;;;;;;-145.79;97.46;77186.50;5314204;28;20444;-68
2023/04/28 11:50:52;;;;;;;22.73;20.58;;;;;;;-145.79;98.00;77186.50;5302673;28;20485;-69
2023/04/28 11:53:43;;;;;;;23.98;21.92;;;;;;;-145.79;98.87;77190.75;5303364;28;20024;-71
2023/04/28 11:56:14;;;;;;;20.08;18.23;;;;;;;-145.79;98.82;77195.00;5314329;28;20017;-72
2023/04/28 11:58:58;;;;;;;20.65;18.73;;;;;;;-145.79;99.28;77195.00;5309975;28;20438;-71
2023/04/28 12:01:31;;;;;;;21.05;19.35;;;;;;;-145.79;99.31;77201.34;5306923;28;20070;-71
2023/04/28 12:04:03;;;;;;;21.40;19.50;;;;;;;-145.79;99.55;77203.47;5312374;28;20435;-71
2023/04/28 12:06:34;;;;;;;20.90;19.00;;;;;;;-145.79;100.00;77205.59;5303953;28;20153;-71
2023/04/28 12:09:20;;;;;;;19.73;18.02;;;;;;;-145.79;99.53;77216.19;5321320;28;20019;-71
2023/04/28 12:12:01;;;;;;;20.73;18.95;;;;;;;-145.79;99.25;77209.81;5327455;28;20076;-73
2023/04/28 12:14:56;;;;;;;20.90;19.10;;;;;;;-145.79;100.00;77190.75;5328152;28;20077;-71
2023/04/28 12:17:30;;;;;;;18.30;16.58;;;;;;;-145.79;100.00;77203.47;5328362;28;20336;-72
2023/04/28 12:20:03;;;;;;;17.42;15.98;;;;;;;-145.79;100.00;77186.50;5326674;28;20019;-74
2023/04/28 12:22:47;;;;;;;16.42;15.02;;;;;;;-145.79;100.00;77201.34;5322033;28;20020;-72
2023/04/28 12:25:19;;;;;;;17.85;16.20;;;;;;;-145.79;99.68;77214.06;5317989;28;20066;-72
2023/04/28 12:28:03;;;;;;;17.48;15.98;;;;;;;-145.79;99.34;77228.91;5315711;28;20024;-73
2023/04/28 12:30:42;;;;;;;16.92;15.52;;;;;;;-145.79;100.00;77233.16;5315089;28;20028;-72
2023/04/28 12:33:24;;;;;;;17.95;16.45;;;;;;;-145.79;99.94;77228.91;5327293;28;20055;-73
2023/04/28 12:35:57;;;;;;;16.02;14.63;;;;;;;-145.79;100.00;77233.16;5327812;28;20103;-71
2023/04/28 12:38:29;;;;;;;14.70;13.40;;;;;;;-145.79;100.00;77241.63;5327809;28;20442;-72
2023/04/28 12:41:00;;;;;;;13.70;12.60;;;;;;;-145.79;100.00;77250.09;5324534;28;20076;-71
2023/04/28 12:43:32;;;;;;;13.57;12.35;;;;;;;-145.79;100.00;77250.09;5312702;28;20028;-72
2023/04/28 12:46:04;;;;;;;11.52;10.43;;;;;;;-145.79;100.00;77254.34;5323151;28;20023;-72
2023/04/28 12:48:35;;;;;;;9.57;8.75;;;;;;;-145.79;99.91;77258.56;5314590;28;20054;-72
2023/04/28 12:51:07;;;;;;;7.28;6.68;;;;;;;-145.79;98.32;77275.53;5306341;28;20020;-73
2023/04/28 12:53:39;;;;;;;7.40;6.70;;;;;;;-145.79;98.76;77284.00;5305426;28;20140;-74
2023/04/28 12:56:10;;;;;;;6.50;5.93;;;;;;;-145.79;98.74;77290.38;5305936;28;20028;-73
2023/04/28 12:58:41;;;;;;;5.68;5.18;;;;;;;-145.79;98.43;77322.16;5305748;28;20039;-72
2023/04/28 13:01:14;;;;;;;7.30;6.53;;;;;;;-145.79;97.31;77328.53;5305405;28;20028;-71
2023/04/28 13:03:46;;;;;;;9.13;8.32;;;;;;;-145.79;96.91;77341.25;5305897;28;20046;-72
2023/04/28 13:06:18;;;;;;;9.38;8.55;;;;;;;-145.79;96.13;77343.38;5306349;28;20040;-72
2023/04/28 13:08:49;;;;;;;9.50;8.70;;;;;;;-145.79;95.77;77347.59;5305225;28;20044;-72
2023/04/28 13:11:23;;;;;;;9.43;8.50;;;;;;;-145.79;96.17;77347.59;5305937;28;20111;-75
2023/04/28 13:13:57;;;;;;;8.98;8.07;;;;;;;-145.79;95.49;77345.47;5305744;28;20074;-74
2023/04/28 13:16:29;;;;;;;9.20;8.25;;;;;;;-145.79;95.40;77334.88;5305263;28;20077;-72
2023/04/28 13:19:01;;;;;;;8.77;8.07;;;;;;;-145.79;95.16;77322.16;5305765;28;20456;-71
2023/04/28 13:21:32;;;;;;;9.88;8.88;;;;;;;-145.79;95.86;77300.97;5305458;28;20422;-71
2023/04/28 13:24:04;;;;;;;9.70;8.70;;;;;;;-145.79;94.41;77284.00;5304350;28;20023;-71
2023/04/28 13:26:39;;;;;;;9.13;8.32;;;;;;;-145.79;93.40;77277.66;5305459;28;20399;-72
2023/04/28 13:29:11;;;;;;;8.90;8.17;;;;;;;-145.79;92.33;77269.19;5304808;28;20020;-73
2023/04/28 13:31:42;;;;;;;9.15;8.02;;;;;;;-145.79;92.00;77271.28;5304876;28;20104;-72
2023/04/28 13:34:17;;;;;;;7.50;6.80;;;;;;;-145.79;91.39;77258.56;5319018;28;20032;-72
2023/04/28 13:36:49;;;;;;;7.53;6.90;;;;;;;-145.79;90.25;77258.56;5325815;28;20044;-72
2023/04/28 13:39:21;;;;;;;7.15;6.55;;;;;;;-145.79;90.45;77245.84;5326422;28;20394;-71
2023/04/28 13:41:52;;;;;;;8.35;7.53;;;;;;;-145.79;90.45;77245.84;5326035;28;20036;-73
2023/04/28 13:44:23;;;;;;;7.47;6.88;;;;;;;-145.79;89.24;77245.84;5320642;28;20035;-72
2023/04/28 13:46:55;;;;;;;6.78;5.97;;;;;;;-145.79;88.44;77250.09;5314571;28;20038;-71
2023/04/28 13:49:26;;;;;;;6.60;5.93;;;;;;;-145.79;88.55;77245.84;5309046;28;20084;-71
2023/04/28 13:51:58;;;;;;;6.07;5.55;;;;;;;-145.79;87.11;77237.38;5313170;28;20039;-72
2023/04/28 13:54:29;;;;;;;6.30;5.72;;;;;;;-145.79;87.52;77235.25;5307167;28;20036;-71
2023/04/28 13:57:01;;;;;;;6.65;6.07;;;;;;;-145.79;88.56;77228.91;5323777;28;20139;-70
2023/04/28 13:59:33;;;;;;;7.03;6.43;;;;;;;-145.79;87.59;77209.81;5329823;28;20034;-73
2023/04/28 14:02:04;;;;;;;5.35;4.85;;;;;;;-145.79;86.49;77207.72;5326294;28;20065;-70
2023/04/28 14:04:36;;;;;;;6.03;5.53;;;;;;;-145.79;86.29;77211.94;5325292;28;20475;-71
2023/04/28 14:07:08;;;;;;;5.60;5.10;;;;;;;-145.79;85.48;77211.94;5319093;28;20020;-72
2023/04/28 14:09:40;;;;;;;5.95;5.32;;;;;;;-145.79;85.72;77224.66;5305110;28;20146;-71
2023/04/28 14:12:14;;;;;;;5.57;5.18;;;;;;;-145.79;87.13;77231.03;5314870;28;20016;-73
2023/04/28 14:14:46;;;;;;;6.28;5.68;;;;;;;-145.79;87.96;77250.09;5325998;28;20079;-73
2023/04/28 14:17:17;;;;;;;6.00;5.40;;;;;;;-145.79;88.38;77256.47;5323883;28;20019;-73
2023/04/28 14:19:49;;;;;;;6.13;5.63;;;;;;;-145.79;88.57;77271.28;5324584;28;20043;-70
2023/04/28 14:22:20;;;;;;;6.40;5.90;;;;;;;-145.79;90.75;77267.06;5325732;28;20020;-71
2023/04/28 14:24:52;;;;;;;7.10;6.50;;;;;;;-145.79;91.95;77296.72;5312628;28;20111;-71
2023/04/28 14:27:23;;;;;;;7.20;6.57;;;;;;;-145.79;92.76;77303.09;5303525;28;20017;-72
2023/04/28 14:29:55;;;;;;;7.00;6.45;;;;;;;-145.79;93.26;77298.84;5303822;28;20031;-72
2023/04/28 14:32:26;;;;;;;7.90;6.82;;;;;;;-145.79;93.61;77292.50;5303213;28;20043;-72
2023/04/28 14:34:58;;;;;;;8.38;6.97;;;;;;;-145.79;93.33;77279.78;5309270;27;20073;-71
2023/04/28 14:37:29;;;;;;;7.68;6.70;;;;;;;-145.79;92.63;77284.00;5305791;28;20483;-72
2023/04/28 14:40:00;;;;;;;7.10;6.47;;;;;;;-145.79;92.69;77288.25;5324266;28;20047;-71
2023/04/28 14:42:35;;;;;;;7.70;7.10;;;;;;;-145.79;93.03;77292.50;5306682;28;20472;-71
2023/04/28 14:45:07;;;;;;;7.43;6.72;;;;;;;-145.79;93.16;77288.25;5303014;28;20452;-70
2023/04/28 14:47:40;;;;;;;6.63;6.10;;;;;;;-145.79;93.95;77273.41;5303701;28;20028;-72
2023/04/28 14:50:11;;;;;;;7.72;6.95;;;;;;;-145.79;93.78;77281.91;5303536;28;20036;-72
2023/04/28 14:52:43;;;;;;;6.72;6.18;;;;;;;-145.79;93.70;77269.19;5303733;28;20055;-72
2023/04/28 14:55:14;;;;;;;8.52;7.72;;;;;;;-145.79;94.05;77284.00;5315955;28;20460;-72
2023/04/28 14:57:47;;;;;;;6.90;6.30;;;;;;;-145.79;94.84;77277.66;5321198;28;20048;-72
2023/04/28 15:00:18;;;;;;;7.47;6.88;;;;;;;-145.79;95.22;77288.25;5310002;28;20034;-73
2023/04/28 15:02:49;;;;;;;7.28;6.53;;;;;;;-145.79;95.31;77284.00;5325093;28;20028;-73
2023/04/28 15:05:21;;;;;;;7.25;6.55;;;;;;;-145.79;95.33;77279.78;5322228;28;20024;-74
2023/04/28 15:07:52;;;;;;;7.78;7.18;;;;;;;-145.79;95.10;77279.78;5317519;28;20028;-73
2023/04/28 15:10:23;;;;;;;8.18;7.47;;;;;;;-145.79;95.55;77277.66;5307546;28;20024;-72
2023/04/28 15:12:55;;;;;;;8.75;8.02;;;;;;;-145.79;94.78;77264.94;5303627;28;20032;-71
2023/04/28 15:15:27;;;;;;;9.20;8.43;;;;;;;-145.79;94.22;77258.56;5303504;28;20077;-73
2023/04/28 15:17:59;;;;;;;9.68;8.90;;;;;;;-145.79;94.20;77245.84;5303581;28;20016;-72
2023/04/28 15:20:32;;;;;;;11.68;10.57;;;;;;;-145.79;93.35;77245.84;5319560;28;20028;-74
2023/04/28 15:23:03;;;;;;;9.88;9.07;;;;;;;-145.79;92.75;77250.09;5324055;28;20019;-72
2023/04/28 15:25:34;;;;;;;11.70;10.80;;;;;;;-145.79;92.32;77245.84;5325168;28;20486;-72
2023/04/28 15:28:06;;;;;;;10.00;9.20;;;;;;;-145.79;92.19;77237.38;5324658;28;20028;-72
2023/04/28 15:30:37;;;;;;;9.80;9.00;;;;;;;-145.79;91.55;77245.84;5324025;28;20099;-72
2023/04/28 15:33:09;;;;;;;9.60;8.88;;;;;;;-145.79;91.39;77245.84;5309313;28;20081;-72
2023/04/28 15:35:40;;;;;;;10.68;9.73;;;;;;;-145.79;92.69;77254.34;5302200;28;20482;-71
2023/04/28 15:38:12;;;;;;;10.45;9.63;;;;;;;-145.79;93.11;77264.94;5307103;28;20444;-72
2023/04/28 15:40:44;;;;;;;11.30;10.15;;;;;;;-145.79;93.89;77269.19;5310828;28;20024;-72
2023/04/28 15:43:16;;;;;;;10.25;9.45;;;;;;;-145.79;94.03;77269.19;5325843;28;20072;-71
2023/04/28 15:45:47;;;;;;;11.57;10.30;;;;;;;-145.79;94.44;77260.69;5328521;27;20122;-70
2023/04/28 15:48:19;;;;;;;11.77;10.77;;;;;;;-145.79;94.03;77264.94;5322638;28;20062;-70
2023/04/28 15:50:50;;;;;;;10.82;9.80;;;;;;;-145.79;93.94;77258.56;5306755;28;20383;-71
2023/04/28 15:53:21;;;;;;;10.75;9.95;;;;;;;-145.79;93.89;77254.34;5307334;28;20016;-71
2023/04/28 15:55:53;;;;;;;9.77;9.05;;;;;;;-145.79;93.58;77250.09;5307722;28;20028;-71
2023/04/28 15:58:24;;;;;;;9.77;8.98;;;;;;;-145.79;92.85;77243.75;5306623;28;20016;-71
2023/04/28 16:00:58;;;;;;;10.27;9.27;;;;;;;-145.79;92.82;77245.84;5306853;28;20024;-71
2023/04/28 16:03:29;;;;;;;9.25;8.50;;;;;;;-145.79;92.19;77231.03;5306032;28;20024;-71
2023/04/28 16:06:02;;;;;;;8.55;7.85;;;;;;;-145.79;91.60;77235.25;5307292;28;20093;-71
2023/04/28 16:08:36;;;;;;;9.95;9.13;;;;;;;-145.79;91.86;77231.03;5307276;28;20109;-71
2023/04/28 16:11:09;;;;;;;9.20;8.30;;;;;;;-145.79;91.21;77231.03;5305928;28;20468;-71
2023/04/28 16:13:41;;;;;;;9.90;8.90;;;;;;;-145.79;91.05;77233.16;5307319;28;20116;-71
2023/04/28 16:16:12;;;;;;;8.90;8.20;;;;;;;-145.79;91.26;77241.63;5306294;28;20055;-71
2023/04/28 16:18:43;;;;;;;8.68;7.85;;;;;;;-145.79;90.74;77241.63;5305887;28;20028;-72
2023/04/28 16:21:16;;;;;;;8.95;8.15;;;;;;;-145.79;90.55;77254.34;5318500;28;20027;-72
2023/04/28 16:23:49;;;;;;;9.13;8.32;;;;;;;-145.79;90.54;77250.09;5321367;28;20038;-72
2023/04/28 16:26:21;;;;;;;9.02;8.23;;;;;;;-145.79;90.54;77247.97;5327224;28;20111;-71
2023/04/28 16:28:52;;;;;;;9.35;8.05;;;;;;;-145.79;90.30;77250.09;5328412;28;20094;-72
2023/04/28 16:31:24;;;;;;;9.00;8.05;;;;;;;-145.79;89.95;77250.09;5327672;28;20044;-74
2023/04/28 16:33:56;;;;;;;8.63;7.80;;;;;;;-145.79;89.95;77245.84;5307325;28;20020;-73
2023/04/28 16:36:31;;;;;;;9.43;6.75;;;;;;;-145.79;90.36;77233.16;5327854;28;20016;-73
2023/04/28 16:39:02;;;;;;;;;;;;;;;-145.79;89.76;77226.78;5327859;28;20423;-73
2023/04/28 16:41:34;;;;;;;7.97;7.13;;;;;;;-145.79;89.24;77233.16;5319683;28;19966;-73
2023/04/28 16:44:05;;;;;;;8.10;7.40;;;;;;;-145.79;89.24;77233.16;5327989;28;20023;-73
2023/04/28 16:46:40;;;;;;;8.45;7.65;;;;;;;-145.79;89.55;77228.91;5326902;28;20090;-73
2023/04/28 16:49:11;;;;;;;11.00;7.83;;;;;;;-145.79;89.57;77228.91;5327380;28;20360;-73
2023/04/28 16:51:57;;;;;;;8.65;7.25;;;;;;;-145.79;89.32;77237.38;5326767;27;20031;-73
